WetterOnline ( https://www.wetteronline.de )

Wetter aktuell Traunstein

Aktuelles Wetter: Chieming (553m)

6-stündlich | Neueste Meldungen
Ortszeit Temperatur Wetter
Sa, 24.08. 14:00 23.3° C leicht bewölkt
Sa, 24.08. 8:00 15.0° C bewölkt
Sa, 24.08. 2:00 16.3° C wolkig
Fr, 23.08. 20:00 19.4° C bedeckt
Fr, 23.08. 14:00 21.3° C bewölkt
Fr, 23.08. 8:00 14.6° C bedeckt
Fr, 23.08. 2:00 12.5° C bewölkt
Do, 22.08. 20:00 17.5° C wolkenlos
Ortszeit Temperatur Wetter
Sa, 24.08. 15:30 25.2° C wolkig
Sa, 24.08. 15:20 25.2° C wolkig
Sa, 24.08. 15:10 25.0° C wolkig
Sa, 24.08. 15:00 24.3° C leicht bewölkt
Sa, 24.08. 14:50 24.3° C wolkig
Sa, 24.08. 14:40 24.6° C wolkig
Sa, 24.08. 14:30 24.2° C wolkig
Sa, 24.08. 14:00 23.3° C leicht bewölkt
Sa, 24.08. 13:30 23.3° C wolkig
Sa, 24.08. 13:00 22.3° C leicht bewölkt
Sa, 24.08. 12:30 21.6° C bewölkt
Ortszeit Relative Feuchte Sichtweite
Sa, 24.08. 14:00 71% 11 km
Sa, 24.08. 8:00 99% 3.4 km
Sa, 24.08. 2:00 97% 5.0 km
Fr, 23.08. 20:00 88% 12 km
Fr, 23.08. 14:00 78% 7 km
Fr, 23.08. 8:00 97% 7 km
Fr, 23.08. 2:00 99% 7 km
Do, 22.08. 20:00 79% 12 km
Ortszeit Relative Feuchte Sichtweite
Sa, 24.08. 15:30 66% 11 km
Sa, 24.08. 15:20 66% -
Sa, 24.08. 15:10 69% -
Sa, 24.08. 15:00 68% 15 km
Sa, 24.08. 14:50 68% -
Sa, 24.08. 14:40 71% -
Sa, 24.08. 14:30 69% 16 km
Sa, 24.08. 14:00 71% 11 km
Sa, 24.08. 13:30 72% 10 km
Sa, 24.08. 13:00 75% 14 km
Sa, 24.08. 12:30 74% 11 km
Ortszeit Niederschlagsmenge Niederschlagsart
Sa, 24.08. 14:00 0.0 l/m2 in 6 Std. -
Sa, 24.08. 8:00 0.0 l/m2 in 12 Std. -
Sa, 24.08. 2:00 0.0 l/m2 in 6 Std. -
Fr, 23.08. 20:00 0.0 l/m2 in 12 Std. -
Fr, 23.08. 14:00 0.0 l/m2 in 6 Std. -
Fr, 23.08. 8:00 0.0 l/m2 in 12 Std. -
Fr, 23.08. 2:00 0.0 l/m2 in 6 Std. -
Do, 22.08. 20:00 0.0 l/m2 in 12 Std. -
Ortszeit Niederschlagsmenge Niederschlagsart
Sa, 24.08. 15:30 0.0 l/m2 in 1 Std. -
Sa, 24.08. 15:20 keine Meldung -
Sa, 24.08. 15:10 keine Meldung -
Sa, 24.08. 15:00 0.0 l/m2 in 1 Std. -
Sa, 24.08. 14:50 keine Meldung -
Sa, 24.08. 14:40 keine Meldung -
Sa, 24.08. 14:30 0.0 l/m2 in 1 Std. -
Sa, 24.08. 14:00 0.0 l/m2 in 1 Std. -
Sa, 24.08. 13:30 0.0 l/m2 in 1 Std. -
Sa, 24.08. 13:00 0.0 l/m2 in 1 Std. -
Sa, 24.08. 12:30 0.0 l/m2 in 1 Std. -
Ortszeit Stärke Spitze Richtung
km/h Bft. km/h Grad Sektor
Sa, 24.08. 14:00 11 2 14 250° W
Sa, 24.08. 8:00 4 1 11 90° O
Sa, 24.08. 2:00 4 1 11 120° SO
Fr, 23.08. 20:00 4 1 29 60° NO
Fr, 23.08. 14:00 17 3 26 60° NO
Fr, 23.08. 8:00 0 0 7 - -
Fr, 23.08. 2:00 7 2 11 60° NO
Do, 22.08. 20:00 2 1 20 30° NO
Ortszeit Stärke Spitze Richtung
km/h Bft. km/h Grad Sektor
Sa, 24.08. 15:30 7 2 11 250° W
Sa, 24.08. 15:20 7 2 - 250° W
Sa, 24.08. 15:10 7 2 - 260° W
Sa, 24.08. 15:00 7 2 11 260° W
Sa, 24.08. 14:50 7 2 - 260° W
Sa, 24.08. 14:40 7 2 - 250° W
Sa, 24.08. 14:30 7 2 13 250° W
Sa, 24.08. 14:00 11 2 14 250° W
Sa, 24.08. 13:30 9 2 13 260° W
Sa, 24.08. 13:00 9 2 13 260° W
Sa, 24.08. 12:30 9 2 13 270° W
Ortszeit Untergrenze Bedeckung Gattung
total tief tief mittel hoch
Sa, 24.08. 14:00 6000 m 8/8 1/8 - - -
Sa, 24.08. 8:00 4500 m 8/8 4/8 - - -
Sa, 24.08. 2:00 6000 m 8/8 1/8 - - -
Fr, 23.08. 20:00 930 m 8/8 8/8 - - -
Fr, 23.08. 14:00 1050 m 7/8 7/8 - - -
Fr, 23.08. 8:00 720 m 8/8 8/8 - - -
Fr, 23.08. 2:00 870 m 7/8 7/8 - - -
Do, 22.08. 20:00 - 0/8 0/8 - - -
Ortszeit Bedeckungsgrad in Achtel und Wolkenuntergrenze
Sa, 24.08. 15:30 6(8100m) 8(9000m) 8(9000m)
Sa, 24.08. 15:20 6(8100m) 8(9000m) 8(9000m)
Sa, 24.08. 15:10 7(8100m) 8(9000m) 8(9000m)
Sa, 24.08. 15:00 8(8700m) 8(9000m) 8(10500m)
Sa, 24.08. 14:50 8(8700m) 8(9000m) 8(10500m)
Sa, 24.08. 14:40 8(8700m) 8(9000m) 8(10500m)
Sa, 24.08. 14:30 8(9000m) 8(10500m)
Sa, 24.08. 14:00 1(6000m) 4(9000m) 8(10500m)
Sa, 24.08. 13:30 4(6000m) 5(10500m)
Sa, 24.08. 13:00 2(6000m) 3(9000m) 3(10500m)
Sa, 24.08. 12:30 7(5700m) 7(6300m) 8(9000m)
Ortszeit Luftdruck NN (hPa) Tendenz (hPa in 3 Std.)
Sa, 24.08. 14:00 1018 - 0,7
Sa, 24.08. 8:00 1021 - 0,2
Sa, 24.08. 2:00 1021 - 0,9
Fr, 23.08. 20:00 1022 - 0,1
Fr, 23.08. 14:00 1023 - 0,6
Fr, 23.08. 8:00 1026 + 0,2
Fr, 23.08. 2:00 1026 - 0,6
Do, 22.08. 20:00 1025 + 0,3
Ortszeit Luftdruck NN (hPa) Tendenz (hPa in 3 Std.)
Sa, 24.08. 15:30 1017 - 0,7
Sa, 24.08. 15:20 1017 keine Meldung
Sa, 24.08. 15:10 1018 keine Meldung
Sa, 24.08. 15:00 1018 - 0,7
Sa, 24.08. 14:50 1018 keine Meldung
Sa, 24.08. 14:40 1018 keine Meldung
Sa, 24.08. 14:30 1018 - 0,6
Sa, 24.08. 14:00 1018 - 0,7
Sa, 24.08. 13:30 1018 - 0,6
Sa, 24.08. 13:00 1019 - 0,3
Sa, 24.08. 12:30 1019 - 0,2
Ortszeit Schneehöhe (cm)
Sa, 24.08. 14:00 -
Sa, 24.08. 8:00 -
Sa, 24.08. 2:00 -
Fr, 23.08. 20:00 -
Fr, 23.08. 14:00 -
Fr, 23.08. 8:00 -
Fr, 23.08. 2:00 -
Do, 22.08. 20:00 -
Ortszeit Schneehöhe (cm)
Sa, 24.08. 15:30 -
Sa, 24.08. 15:20 -
Sa, 24.08. 15:10 -
Sa, 24.08. 15:00 -
Sa, 24.08. 14:50 -
Sa, 24.08. 14:40 -
Sa, 24.08. 14:30 -
Sa, 24.08. 14:00 -
Sa, 24.08. 13:30 -
Sa, 24.08. 13:00 -
Sa, 24.08. 12:30 -
Link zu dieser Seite / Seite empfehlen

Das Wetter in ...